Time;durP1;ratioP1;P1;durP2;ratioP2;P2;SDS_P1;SDS_P2;PMS_P1;PMS_P2;Temp;Humidity;BMP_temperature;BMP_pressure;BME280_temperature;BME280_humidity;BME280_pressure;Samples;Min_cycle;Max_cycle;Signal;HPM_P1;HPM_P2
2024/04/10 00:00:16;;;;;;;4.63;1.55;;;;;;;10.74;66.90;99113.44;5393914;26;20008;-80
2024/04/10 00:02:41;;;;;;;3.38;1.25;;;;;;;10.97;66.79;99128.47;5400226;26;20538;-80
2024/04/10 00:05:07;;;;;;;2.03;1.17;;;;;;;11.01;65.98;99133.06;5403975;26;19996;-79
2024/04/10 00:07:33;;;;;;;3.28;1.00;;;;;;;10.85;66.73;99119.75;5394460;26;20000;-80
2024/04/10 00:09:58;;;;;;;3.75;1.20;;;;;;;10.88;66.96;99135.25;5395834;26;19995;-80
2024/04/10 00:12:24;;;;;;;1.67;1.30;;;;;;;10.82;67.02;99123.69;5398316;26;20015;-81
2024/04/10 00:14:49;;;;;;;4.30;1.10;;;;;;;10.85;66.87;99146.44;5394618;26;20374;-81
2024/04/10 00:17:14;;;;;;;4.25;1.02;;;;;;;10.87;66.87;99155.03;5394008;26;20073;-80
2024/04/10 00:19:40;;;;;;;3.42;1.08;;;;;;;10.78;67.25;99151.94;5401180;26;20003;-80
2024/04/10 00:22:06;;;;;;;6.85;1.73;;;;;;;10.45;67.60;99139.38;5394785;26;20000;-80
2024/04/10 00:24:31;;;;;;;5.38;1.55;;;;;;;10.46;68.18;99170.31;5384781;26;20004;-79
2024/04/10 00:26:57;;;;;;;3.72;2.08;;;;;;;10.64;67.36;99152.50;5374872;26;20035;-79
2024/04/10 00:29:22;;;;;;;4.03;1.50;;;;;;;10.66;67.59;99166.41;5389014;26;19996;-79
2024/04/10 00:31:50;;;;;;;5.93;1.52;;;;;;;10.50;67.67;99155.47;5400527;26;20007;-80
2024/04/10 00:34:16;;;;;;;4.22;1.58;;;;;;;10.79;67.42;99156.22;5389622;26;20428;-80
2024/04/10 00:36:42;;;;;;;2.90;1.30;;;;;;;10.82;67.27;99163.75;5399506;26;20080;-80
2024/04/10 00:39:07;;;;;;;4.85;1.60;;;;;;;10.77;67.04;99149.53;5394962;26;19991;-81
2024/04/10 00:41:33;;;;;;;3.15;1.42;;;;;;;10.68;67.51;99158.97;5435419;26;19995;-81
2024/04/10 00:43:58;;;;;;;4.03;1.75;;;;;;;10.62;67.19;99158.06;5396130;26;19996;-81
2024/04/10 00:46:24;;;;;;;3.10;1.40;;;;;;;10.66;67.66;99164.53;5396358;26;20077;-81
2024/04/10 00:48:50;;;;;;;1.88;1.75;;;;;;;10.63;67.24;99149.03;5395123;26;20011;-81
2024/04/10 00:51:21;;;;;;;4.95;1.90;;;;;;;10.62;67.53;99166.06;5396696;26;20018;-80
2024/04/10 00:53:48;;;;;;;2.30;1.73;;;;;;;10.42;68.16;99155.03;5398620;26;20012;-80
2024/04/10 00:56:14;;;;;;;2.78;1.63;;;;;;;10.45;67.89;99151.91;5373028;26;20012;-81
2024/04/10 00:58:39;;;;;;;3.50;2.60;;;;;;;10.41;68.07;99156.91;5393986;26;20035;-81
2024/04/10 01:01:06;;;;;;;5.80;2.20;;;;;;;10.54;67.82;99164.63;5398972;26;20004;-81
2024/04/10 01:03:33;;;;;;;3.88;2.25;;;;;;;10.62;67.78;99170.59;5402806;26;20000;-81
2024/04/10 01:05:59;;;;;;;5.90;1.88;;;;;;;10.52;67.51;99158.72;5408951;26;20032;-80
2024/04/10 01:08:27;;;;;;;5.00;2.53;;;;;;;10.53;67.92;99173.66;5390356;26;20003;-81
2024/04/10 01:10:52;;;;;;;4.03;2.05;;;;;;;10.63;67.91;99175.72;5399972;26;19999;-80
2024/04/10 01:13:18;;;;;;;5.32;2.42;;;;;;;10.60;67.49;99173.50;5397553;26;20007;-80
2024/04/10 01:15:44;;;;;;;5.10;2.28;;;;;;;10.67;67.70;99192.03;5397665;26;20004;-80
2024/04/10 01:18:10;;;;;;;9.57;2.42;;;;;;;10.59;67.64;99179.09;5406157;26;20015;-80
2024/04/10 01:20:35;;;;;;;3.80;2.15;;;;;;;10.74;67.72;99195.38;5362657;26;20018;-81
2024/04/10 01:23:03;;;;;;;2.58;2.10;;;;;;;10.64;67.84;99188.00;5403423;26;19995;-81
2024/04/10 01:25:28;;;;;;;7.85;2.53;;;;;;;10.49;68.18;99183.19;5405653;26;20008;-81
2024/04/10 01:27:53;;;;;;;4.28;2.13;;;;;;;10.48;67.81;99188.78;5395458;26;20039;-81
2024/04/10 01:30:19;;;;;;;6.93;2.58;;;;;;;10.54;67.86;99191.31;5399231;26;20012;-81
2024/04/10 01:32:44;;;;;;;14.98;2.75;;;;;;;10.62;68.25;99195.44;5394449;26;20000;-81
2024/04/10 01:35:09;;;;;;;4.43;1.80;;;;;;;10.65;67.86;99202.16;5407970;26;21403;-81
2024/04/10 01:37:35;;;;;;;12.73;3.83;;;;;;;10.62;67.75;99206.13;5395030;26;20337;-80
2024/04/10 01:40:00;;;;;;;5.90;2.33;;;;;;;10.58;67.93;99191.63;5411839;26;19992;-81
2024/04/10 01:42:25;;;;;;;9.77;2.50;;;;;;;10.68;67.74;99207.03;5394211;26;20019;-80
2024/04/10 01:44:51;;;;;;;4.32;2.78;;;;;;;10.53;68.13;99199.53;5398772;26;20007;-80
2024/04/10 01:47:18;;;;;;;4.35;2.38;;;;;;;10.64;67.80;99213.91;5393986;26;20012;-80
2024/04/10 01:49:43;;;;;;;5.85;2.47;;;;;;;10.57;67.70;99211.38;5369575;26;20004;-80
2024/04/10 01:52:08;;;;;;;3.55;2.65;;;;;;;10.66;67.60;99217.94;5375373;26;19992;-79
2024/04/10 01:54:34;;;;;;;3.42;2.15;;;;;;;10.64;68.33;99213.91;5403177;26;20000;-79
2024/04/10 01:56:59;;;;;;;2.92;1.80;;;;;;;10.60;68.38;99215.41;5399633;26;19995;-80
2024/04/10 01:59:24;;;;;;;9.93;2.50;;;;;;;10.50;68.56;99216.03;5413319;26;20043;-80
2024/04/10 02:01:50;;;;;;;4.47;2.08;;;;;;;10.26;68.81;99206.50;5409410;26;20440;-79
2024/04/10 02:04:16;;;;;;;7.28;3.03;;;;;;;10.43;68.61;99216.19;5408110;26;20011;-80
2024/04/10 02:06:41;;;;;;;6.18;2.20;;;;;;;10.34;68.70;99209.59;5375407;26;20010;-80
2024/04/10 02:09:06;;;;;;;6.00;2.42;;;;;;;10.45;68.00;99213.28;5404545;26;20076;-80
2024/04/10 02:11:37;;;;;;;4.68;2.15;;;;;;;10.57;67.94;99231.91;5392725;26;20097;-80
2024/04/10 02:14:02;;;;;;;6.15;2.35;;;;;;;10.51;67.83;99228.31;5401395;26;20003;-80
2024/04/10 02:16:28;;;;;;;5.75;2.70;;;;;;;10.31;68.79;99207.41;5402384;26;21200;-80
2024/04/10 02:18:57;;;;;;;4.82;1.98;;;;;;;10.34;68.79;99220.28;5403664;26;20014;-80
2024/04/10 02:21:22;;;;;;;5.18;2.30;;;;;;;10.42;68.58;99224.41;5397097;26;20004;-80
2024/04/10 02:23:50;;;;;;;5.63;2.20;;;;;;;10.45;68.29;99224.75;5409172;26;19999;-80
2024/04/10 02:26:17;;;;;;;4.75;2.53;;;;;;;10.47;68.22;99241.34;5400326;26;19997;-80
2024/04/10 02:28:42;;;;;;;9.48;2.47;;;;;;;10.43;68.40;99245.53;5396730;26;20018;-81
2024/04/10 02:31:09;;;;;;;6.35;2.28;;;;;;;10.21;69.16;99244.56;5405199;26;19996;-80
2024/04/10 02:33:37;;;;;;;5.30;2.15;;;;;;;10.36;68.66;99254.72;5382574;26;20007;-80
2024/04/10 02:36:07;;;;;;;4.40;1.90;;;;;;;10.31;69.09;99255.44;5408282;26;20015;-80
2024/04/10 02:38:35;;;;;;;4.18;2.00;;;;;;;10.34;68.93;99254.16;5394376;26;20692;-80
2024/04/10 02:41:02;;;;;;;3.90;2.45;;;;;;;10.33;68.95;99255.22;5395698;26;20005;-80
2024/04/10 02:43:27;;;;;;;3.13;2.25;;;;;;;10.35;68.58;99264.56;5382261;26;20039;-80
2024/04/10 02:45:53;;;;;;;5.53;1.98;;;;;;;10.33;68.75;99269.34;5402659;26;20004;-79
2024/04/10 02:48:19;;;;;;;7.57;2.40;;;;;;;10.27;68.91;99280.13;5367227;26;20577;-79
2024/04/10 02:50:44;;;;;;;4.85;2.30;;;;;;;10.21;69.20;99281.91;5379837;26;20014;-79
2024/04/10 02:53:11;;;;;;;4.43;2.30;;;;;;;10.25;69.25;99285.72;5409242;26;19996;-80
2024/04/10 02:55:36;;;;;;;8.15;2.30;;;;;;;10.23;69.58;99303.00;5398320;26;20011;-80
2024/04/10 02:58:02;;;;;;;9.32;2.08;;;;;;;10.16;69.24;99295.13;5411662;26;20444;-80
2024/04/10 03:00:27;;;;;;;7.65;2.55;;;;;;;10.17;69.46;99299.44;5377249;26;20010;-80
2024/04/10 03:02:53;;;;;;;5.85;2.60;;;;;;;10.24;69.47;99318.75;5392637;26;20077;-80
2024/04/10 03:05:18;;;;;;;3.85;2.20;;;;;;;10.13;69.83;99308.13;5403287;26;19999;-80
2024/04/10 03:07:44;;;;;;;5.95;2.90;;;;;;;10.24;69.28;99316.09;5378343;26;20007;-81
2024/04/10 03:10:10;;;;;;;7.70;2.83;;;;;;;10.07;69.89;99317.84;5402956;26;20018;-81
2024/04/10 03:12:35;;;;;;;8.30;2.60;;;;;;;10.10;70.17;99317.38;5397728;26;20601;-80
2024/04/10 03:15:01;;;;;;;4.45;2.55;;;;;;;10.23;69.28;99317.16;5395468;26;20019;-80
2024/04/10 03:17:26;;;;;;;6.72;2.97;;;;;;;10.17;69.93;99320.78;5402472;26;20478;-79
2024/04/10 03:19:53;;;;;;;5.38;2.65;;;;;;;10.09;69.67;99321.06;5397940;26;19996;-80
2024/04/10 03:22:18;;;;;;;4.43;3.42;;;;;;;10.27;69.71;99341.50;5409044;26;20019;-80
2024/04/10 03:24:43;;;;;;;5.28;3.05;;;;;;;10.16;69.96;99331.66;5397814;26;20334;-79
2024/04/10 03:27:09;;;;;;;9.70;3.30;;;;;;;10.30;69.35;99349.06;5407420;26;19992;-79
2024/04/10 03:29:34;;;;;;;7.90;3.65;;;;;;;10.19;69.72;99344.53;5391060;26;20034;-79
2024/04/10 03:31:59;;;;;;;8.82;2.70;;;;;;;10.20;69.78;99351.50;5396998;26;20006;-79
2024/04/10 03:34:25;;;;;;;9.68;3.10;;;;;;;10.01;70.34;99373.97;5400150;26;20022;-79
2024/04/10 03:36:50;;;;;;;8.70;3.83;;;;;;;10.15;70.04;99376.22;5396621;26;20006;-79
2024/04/10 03:39:16;;;;;;;6.80;3.00;;;;;;;10.13;69.76;99380.97;5391854;26;20004;-80
2024/04/10 03:41:41;;;;;;;7.85;2.83;;;;;;;10.06;70.10;99387.41;5399665;26;19999;-80
2024/04/10 03:44:07;;;;;;;13.75;3.80;;;;;;;9.91;70.50;99384.41;5388999;26;19996;-80
2024/04/10 03:46:32;;;;;;;6.72;3.63;;;;;;;10.11;70.00;99388.38;5395098;26;20018;-80
2024/04/10 03:48:58;;;;;;;6.60;3.08;;;;;;;10.08;70.48;99394.16;5404004;26;20000;-79
2024/04/10 03:51:24;;;;;;;7.60;3.60;;;;;;;10.09;69.97;99384.31;5399097;26;19999;-79
2024/04/10 03:53:49;;;;;;;11.43;4.15;;;;;;;9.96;70.14;99393.31;5398694;26;19992;-78
2024/04/10 03:56:15;;;;;;;6.82;3.63;;;;;;;10.14;70.73;99405.75;5397551;26;20001;-79
2024/04/10 03:58:40;;;;;;;11.05;3.45;;;;;;;9.93;70.76;99415.13;5395859;26;20037;-78
2024/04/10 04:01:06;;;;;;;10.13;3.33;;;;;;;9.92;70.50;99400.16;5396260;26;20406;-78
2024/04/10 04:03:33;;;;;;;6.32;3.30;;;;;;;9.96;70.90;99416.53;5403381;26;20010;-78
2024/04/10 04:06:00;;;;;;;8.57;3.58;;;;;;;10.02;70.54;99416.41;5394255;26;20051;-78
2024/04/10 04:08:26;;;;;;;14.23;3.78;;;;;;;9.85;71.39;99420.00;5397515;26;20003;-78
2024/04/10 04:10:54;;;;;;;11.13;4.35;;;;;;;10.01;70.84;99432.63;5397197;26;20043;-78
2024/04/10 04:13:19;;;;;;;5.57;3.63;;;;;;;10.05;70.70;99434.59;5395632;26;20016;-79
2024/04/10 04:15:45;;;;;;;8.85;3.72;;;;;;;9.91;70.66;99432.38;5386840;26;20000;-79
2024/04/10 04:18:10;;;;;;;9.05;3.50;;;;;;;10.06;70.41;99438.91;5398136;26;20015;-79
2024/04/10 04:20:36;;;;;;;8.40;4.25;;;;;;;9.91;70.98;99443.06;5403413;26;20368;-79
2024/04/10 04:23:01;;;;;;;11.60;3.80;;;;;;;9.95;71.08;99453.03;5391537;26;20018;-80
2024/04/10 04:25:30;;;;;;;9.10;3.83;;;;;;;10.01;70.77;99445.97;5391915;26;20085;-80
2024/04/10 04:27:56;;;;;;;7.35;3.60;;;;;;;9.99;71.04;99445.38;5398174;26;20061;-80
2024/04/10 04:30:22;;;;;;;8.52;3.80;;;;;;;10.04;70.76;99459.66;5398228;26;20014;-80
2024/04/10 04:32:47;;;;;;;5.60;3.30;;;;;;;9.94;70.80;99469.28;5390811;26;20440;-80
2024/04/10 04:35:13;;;;;;;11.48;4.85;;;;;;;10.10;70.69;99474.75;5393866;26;20569;-79
2024/04/10 04:37:38;;;;;;;13.15;4.05;;;;;;;9.85;70.90;99470.63;5391187;26;20065;-79
2024/04/10 04:40:06;;;;;;;11.43;4.32;;;;;;;10.02;70.64;99475.09;5391903;26;19999;-79
2024/04/10 04:42:32;;;;;;;7.82;4.75;;;;;;;9.93;70.96;99479.13;5398559;26;19995;-79
2024/04/10 04:44:58;;;;;;;9.27;3.63;;;;;;;10.03;70.84;99491.88;5399643;26;20014;-79
2024/04/10 04:47:23;;;;;;;14.18;4.45;;;;;;;10.02;71.13;99506.28;5390038;26;20435;-78
2024/04/10 04:49:48;;;;;;;9.48;4.13;;;;;;;10.05;70.98;99508.47;5397906;26;20004;-78
2024/04/10 04:52:15;;;;;;;11.50;4.07;;;;;;;10.08;70.53;99506.16;5388561;26;20029;-77
2024/04/10 04:54:40;;;;;;;10.57;4.97;;;;;;;10.00;70.96;99517.19;5385302;26;20391;-78
2024/04/10 04:57:09;;;;;;;7.18;4.40;;;;;;;10.05;71.05;99514.63;5391163;26;19996;-78
2024/04/10 04:59:34;;;;;;;11.38;5.13;;;;;;;9.86;71.16;99515.72;5388489;26;20014;-78
2024/04/10 05:02:00;;;;;;;7.88;4.25;;;;;;;9.86;71.14;99518.41;5396314;26;20003;-78
2024/04/10 05:07:10;;;;;;;12.00;5.00;;;;;;;10.10;70.87;99535.28;5391294;26;20014;-78
2024/04/10 05:09:35;;;;;;;8.55;4.45;;;;;;;9.81;71.04;99527.06;5401742;26;20001;-79
2024/04/10 05:12:00;;;;;;;13.23;4.93;;;;;;;9.88;71.23;99536.81;5404713;26;20352;-78
2024/04/10 05:14:26;;;;;;;9.77;4.88;;;;;;;9.81;71.26;99534.25;5396897;26;20043;-79
2024/04/10 05:16:51;;;;;;;9.70;4.85;;;;;;;9.70;71.55;99535.84;5403903;26;20056;-79
2024/04/10 05:19:16;;;;;;;11.00;4.75;;;;;;;9.73;71.55;99539.91;5386141;26;20006;-79
2024/04/10 05:21:42;;;;;;;16.65;5.60;;;;;;;9.67;71.69;99554.13;5391245;26;20000;-79
2024/04/10 05:24:08;;;;;;;12.73;5.35;;;;;;;9.72;70.97;99557.75;5401912;26;20004;-79
2024/04/10 05:26:35;;;;;;;9.45;4.55;;;;;;;9.66;71.34;99541.84;5395048;26;20159;-79
2024/04/10 05:29:01;;;;;;;9.73;4.85;;;;;;;9.75;71.10;99562.63;5384417;26;20003;-79
2024/04/10 05:31:26;;;;;;;10.60;4.75;;;;;;;9.65;71.32;99556.22;5392272;26;21226;-79
2024/04/10 05:33:52;;;;;;;11.23;5.93;;;;;;;9.70;71.22;99553.66;5405571;26;20004;-79
2024/04/10 05:36:18;;;;;;;12.07;5.68;;;;;;;9.63;71.16;99555.63;5411089;26;20014;-79
2024/04/10 05:38:45;;;;;;;12.82;4.72;;;;;;;9.59;71.53;99555.25;5376355;26;20007;-80
2024/04/10 05:41:10;;;;;;;12.80;5.13;;;;;;;9.61;71.53;99553.16;5385476;26;20004;-80
2024/04/10 05:43:36;;;;;;;15.55;5.13;;;;;;;9.48;71.61;99534.69;5407657;26;20014;-79
2024/04/10 05:46:02;;;;;;;10.82;5.57;;;;;;;9.63;71.66;99558.31;5389436;26;19996;-80
2024/04/10 05:48:27;;;;;;;12.40;7.22;;;;;;;9.68;71.56;99569.09;5398693;26;20011;-80
2024/04/10 05:50:58;;;;;;;10.90;5.15;;;;;;;9.47;71.80;99561.56;5404996;26;20769;-81
2024/04/10 05:53:24;;;;;;;19.25;6.25;;;;;;;9.53;71.56;99572.16;5369199;26;20028;-81
2024/04/10 05:55:49;;;;;;;14.73;5.70;;;;;;;9.53;71.45;99574.81;5388897;26;20019;-82
2024/04/10 05:58:14;;;;;;;10.05;4.95;;;;;;;9.59;71.77;99583.75;5390445;26;20008;-80
2024/04/10 06:00:40;;;;;;;13.55;5.60;;;;;;;9.48;71.67;99580.00;5409843;26;20008;-81
2024/04/10 06:03:05;;;;;;;11.55;5.30;;;;;;;9.53;71.70;99588.13;5387378;26;20003;-79
2024/04/10 06:05:30;;;;;;;15.38;5.95;;;;;;;9.41;72.22;99597.09;5407837;26;19996;-80
2024/04/10 06:07:56;;;;;;;17.90;6.07;;;;;;;9.34;72.23;99597.19;5383384;26;20000;-80
2024/04/10 06:10:21;;;;;;;13.55;5.68;;;;;;;9.41;71.97;99603.25;5400952;26;20072;-80
2024/04/10 06:12:50;;;;;;;12.50;6.03;;;;;;;9.47;72.16;99615.69;5412769;26;19995;-80
2024/04/10 06:15:16;;;;;;;15.63;6.85;;;;;;;9.68;71.60;99611.72;5414904;26;20003;-80
2024/04/10 06:17:41;;;;;;;12.45;5.60;;;;;;;9.59;71.64;99618.38;5383307;26;20000;-80
2024/04/10 06:20:09;;;;;;;9.65;5.82;;;;;;;9.44;72.28;99625.94;5398037;26;20003;-80
2024/04/10 06:22:35;;;;;;;17.77;6.93;;;;;;;9.25;72.76;99624.31;5384858;26;20463;-80
2024/04/10 06:25:00;;;;;;;18.55;8.18;;;;;;;9.14;72.60;99635.69;5380719;26;19996;-80
2024/04/10 06:27:26;;;;;;;15.07;6.65;;;;;;;9.25;74.13;99657.09;5397196;26;20014;-81
2024/04/10 06:29:51;;;;;;;16.67;7.00;;;;;;;9.24;73.63;99652.00;5411539;26;20464;-80
2024/04/10 06:32:16;;;;;;;14.27;6.10;;;;;;;9.86;71.86;99654.38;5380235;26;20008;-80
2024/04/10 06:34:42;;;;;;;15.30;6.90;;;;;;;9.69;71.88;99653.34;5389023;26;20413;-79
2024/04/10 06:37:07;;;;;;;13.38;6.55;;;;;;;9.85;72.46;99654.59;5415508;26;19996;-79
2024/04/10 06:39:34;;;;;;;13.60;7.85;;;;;;;9.82;72.29;99670.00;5385116;26;20004;-80
2024/04/10 06:42:00;;;;;;;14.32;6.38;;;;;;;9.98;71.68;99663.22;5382101;26;20000;-79
2024/04/10 06:44:25;;;;;;;14.13;5.70;;;;;;;10.20;70.89;99667.09;5391750;26;20356;-79
2024/04/10 06:46:50;;;;;;;22.00;7.43;;;;;;;9.99;71.17;99648.06;5385275;26;20015;-79
2024/04/10 06:49:16;;;;;;;13.80;6.25;;;;;;;10.28;71.10;99673.97;5403695;26;20003;-78
2024/04/10 06:51:41;;;;;;;13.10;5.93;;;;;;;10.31;70.75;99673.53;5387911;26;20004;-78
2024/04/10 06:54:06;;;;;;;15.98;5.63;;;;;;;10.23;70.43;99682.66;5414590;26;19996;-80
2024/04/10 06:56:32;;;;;;;19.35;6.68;;;;;;;10.12;70.77;99666.59;5401036;26;20110;-78
2024/04/10 06:58:58;;;;;;;13.35;5.07;;;;;;;10.19;70.62;99668.13;5399785;26;20017;-79
2024/04/10 07:01:24;;;;;;;13.23;5.63;;;;;;;10.15;70.63;99664.31;5400888;26;20004;-79
2024/04/10 07:03:49;;;;;;;16.55;6.00;;;;;;;10.13;70.27;99650.38;5400905;26;20360;-82
2024/04/10 07:06:17;;;;;;;12.50;6.80;;;;;;;10.28;70.30;99680.13;5403975;26;20428;-78
2024/04/10 07:08:44;;;;;;;9.93;6.00;;;;;;;10.29;69.97;99665.72;5401590;26;19995;-78
2024/04/10 07:11:11;;;;;;;20.05;6.80;;;;;;;9.89;71.19;99653.94;5392369;26;20004;-77
2024/04/10 07:13:43;;;;;;;17.42;7.25;;;;;;;10.20;70.54;99677.75;5409365;26;20076;-79
2024/04/10 07:16:09;;;;;;;16.70;6.18;;;;;;;10.44;69.51;99670.69;5400704;26;20044;-78
2024/04/10 07:18:34;;;;;;;14.05;6.80;;;;;;;10.20;71.38;99690.31;5398527;26;20385;-77
2024/04/10 07:21:06;;;;;;;11.73;6.85;;;;;;;10.34;70.29;99683.72;5395012;26;20448;-78
2024/04/10 07:23:32;;;;;;;14.88;7.63;;;;;;;10.10;70.58;99679.31;5392132;26;20008;-78
2024/04/10 07:26:09;;;;;;;9.98;6.28;;;;;;;10.39;70.35;99692.72;5400094;26;20399;-79
2024/04/10 07:28:35;;;;;;;13.43;6.22;;;;;;;10.44;69.32;99697.38;5382965;26;20023;-77
2024/04/10 07:31:00;;;;;;;13.32;5.57;;;;;;;10.47;69.19;99696.91;5392776;26;20001;-77
2024/04/10 07:33:26;;;;;;;13.25;5.63;;;;;;;10.57;68.77;99704.38;5386279;26;20007;-77
2024/04/10 07:35:51;;;;;;;11.10;5.40;;;;;;;10.50;68.78;99707.13;5402382;26;19992;-78
2024/04/10 07:38:17;;;;;;;13.82;6.97;;;;;;;10.51;68.22;99703.41;5392403;26;20068;-77
2024/04/10 07:40:56;;;;;;;12.43;5.95;;;;;;;10.70;68.25;99718.34;5384878;26;20423;-77
2024/04/10 07:43:21;;;;;;;14.07;7.30;;;;;;;10.49;68.59;99711.66;5401132;26;19996;-80
2024/04/10 07:45:47;;;;;;;14.40;5.53;;;;;;;10.50;68.36;99726.63;5384687;26;19997;-77
2024/04/10 07:48:12;;;;;;;15.90;6.82;;;;;;;9.96;69.10;99734.66;5380289;26;20008;-78
2024/04/10 07:50:38;;;;;;;8.68;5.10;;;;;;;10.40;69.39;99745.03;5384025;26;20015;-78
2024/04/10 07:53:03;;;;;;;20.85;5.88;;;;;;;10.25;69.53;99741.94;5403445;26;20011;-77
2024/04/10 07:55:28;;;;;;;12.80;5.50;;;;;;;9.80;70.86;99748.59;5395951;26;20000;-78
2024/04/10 07:57:54;;;;;;;11.43;5.55;;;;;;;10.12;70.18;99765.28;5390844;26;20000;-78
2024/04/10 08:00:19;;;;;;;24.48;6.72;;;;;;;10.23;69.12;99761.88;5410468;26;20040;-78
2024/04/10 08:02:44;;;;;;;11.52;4.90;;;;;;;10.14;69.35;99752.53;5401107;26;20012;-79
2024/04/10 08:05:10;;;;;;;8.32;5.03;;;;;;;10.63;68.39;99773.69;5386637;26;20000;-78
2024/04/10 08:07:36;;;;;;;9.68;4.80;;;;;;;10.62;67.79;99776.56;5388481;26;19999;-78
2024/04/10 08:10:03;;;;;;;15.00;5.20;;;;;;;10.69;67.31;99777.28;5397279;26;20744;-78
2024/04/10 08:12:29;;;;;;;10.88;4.43;;;;;;;10.90;67.12;99769.59;5397008;26;20007;-79
2024/04/10 08:14:54;;;;;;;9.20;4.40;;;;;;;10.87;66.89;99779.91;5398212;26;20004;-79
2024/04/10 08:17:20;;;;;;;7.82;4.32;;;;;;;11.00;66.92;99785.06;5403712;26;20073;-79
2024/04/10 08:19:46;;;;;;;17.05;4.30;;;;;;;10.87;66.65;99787.94;5391591;26;20000;-79
2024/04/10 08:22:12;;;;;;;11.52;4.30;;;;;;;11.07;67.08;99799.16;5394350;26;20468;-79
2024/04/10 08:24:37;;;;;;;8.52;4.47;;;;;;;10.99;66.83;99807.47;5397221;26;20020;-78
2024/04/10 08:27:03;;;;;;;8.05;3.55;;;;;;;11.05;66.34;99812.72;5400148;26;20407;-79
2024/04/10 08:31:00;;;;;;;10.05;4.57;;;;;;;11.00;66.97;99817.13;5540143;25;20348;-77
2024/04/10 08:33:28;;;;;;;9.63;3.58;;;;;;;11.24;65.89;99816.16;5491418;25;20025;-78
2024/04/10 08:35:59;;;;;;;8.18;3.30;;;;;;;11.04;66.82;99828.97;5495916;25;19990;-78
2024/04/10 08:38:25;;;;;;;8.50;3.97;;;;;;;11.04;66.07;99824.47;5498210;25;20013;-78
2024/04/10 08:40:53;;;;;;;10.82;4.20;;;;;;;11.16;66.19;99832.53;5504559;25;20008;-78
2024/04/10 08:43:20;;;;;;;8.15;3.67;;;;;;;11.12;66.54;99821.47;5501458;25;20534;-78
2024/04/10 08:45:46;;;;;;;11.88;4.25;;;;;;;10.87;65.73;99828.00;5493855;26;19993;-78
2024/04/10 08:48:13;;;;;;;12.35;4.65;;;;;;;10.97;66.57;99839.75;5498737;25;20226;-78
2024/04/10 08:50:40;;;;;;;9.63;3.95;;;;;;;11.14;65.90;99837.25;5505456;25;20066;-78
2024/04/10 08:53:06;;;;;;;4.95;3.10;;;;;;;11.28;65.64;99850.22;5492893;25;19990;-78
2024/04/10 08:55:34;;;;;;;13.93;4.50;;;;;;;11.17;65.80;99851.00;5504645;25;20009;-77
2024/04/10 08:58:00;;;;;;;10.65;3.33;;;;;;;11.31;65.78;99843.59;5491891;25;19994;-78
2024/04/10 09:00:25;;;;;;;7.53;3.60;;;;;;;11.48;65.34;99851.75;5503608;26;20482;-78
2024/04/10 09:02:51;;;;;;;10.82;3.53;;;;;;;11.47;65.30;99866.16;5499842;26;20019;-78
2024/04/10 09:05:31;;;;;;;11.00;3.33;;;;;;;11.43;66.03;99852.44;5500306;25;20001;-78
2024/04/10 09:07:59;;;;;;;7.05;3.28;;;;;;;11.45;65.62;99844.19;5502172;26;20389;-78
2024/04/10 09:10:25;;;;;;;7.28;3.40;;;;;;;11.75;65.12;99877.09;5503180;26;20005;-78
2024/04/10 09:12:51;;;;;;;5.88;3.13;;;;;;;11.64;65.24;99880.53;5496249;25;19990;-78
2024/04/10 09:15:19;;;;;;;7.47;3.53;;;;;;;11.49;65.35;99867.56;5505994;25;19998;-78
2024/04/10 09:17:46;;;;;;;6.72;3.28;;;;;;;11.33;66.70;99878.94;5503532;26;20000;-79
2024/04/10 09:20:18;;;;;;;7.32;2.95;;;;;;;11.60;65.67;99882.81;5505623;25;19990;-78
2024/04/10 09:22:44;;;;;;;12.70;3.30;;;;;;;11.70;65.33;99876.94;5495082;25;20312;-77
2024/04/10 09:25:12;;;;;;;10.13;3.35;;;;;;;11.76;65.27;99897.41;5497762;26;20032;-78
2024/04/10 09:27:37;;;;;;;12.13;3.85;;;;;;;11.30;65.87;99895.41;5502116;26;19998;-78
2024/04/10 09:30:03;;;;;;;9.48;4.10;;;;;;;11.54;65.00;99901.63;5503995;26;20008;-78
2024/04/10 09:32:32;;;;;;;10.02;4.28;;;;;;;11.61;65.25;99895.16;5504137;25;19990;-78
2024/04/10 09:34:58;;;;;;;10.00;5.07;;;;;;;11.59;65.54;99901.78;5504389;25;19989;-78
2024/04/10 09:37:25;;;;;;;9.93;3.58;;;;;;;11.44;65.66;99899.53;5502266;25;20049;-78
2024/04/10 09:39:51;;;;;;;6.25;3.85;;;;;;;11.66;65.26;99903.31;5503931;26;20002;-78
2024/04/10 09:42:27;;;;;;;7.28;3.30;;;;;;;11.69;65.59;99891.34;5488066;26;20005;-77
2024/04/10 09:44:59;;;;;;;;;;;;;;;11.81;64.81;99898.38;5485384;26;20288;-78
2024/04/10 09:47:25;;;;;;;11.98;4.25;;;;;;;11.88;65.89;99890.25;5462833;26;19931;-78
2024/04/10 09:49:56;;;;;;;12.65;4.18;;;;;;;11.97;65.21;99892.31;5487890;26;20026;-78
2024/04/10 09:52:21;;;;;;;8.02;3.95;;;;;;;12.17;64.29;99885.81;5488334;26;19998;-78
2024/04/10 09:54:48;;;;;;;8.35;4.03;;;;;;;12.14;64.83;99894.31;5486933;26;20009;-78
2024/04/10 09:57:16;;;;;;;5.90;3.45;;;;;;;11.96;65.10;99903.25;5485131;26;20146;-78
2024/04/10 09:59:42;;;;;;;6.25;4.03;;;;;;;11.74;65.54;99894.97;5482379;26;19995;-78
2024/04/10 10:02:08;;;;;;;11.00;3.95;;;;;;;11.85;65.22;99904.88;5485091;26;19994;-78
2024/04/10 10:04:38;;;;;;;8.02;3.78;;;;;;;11.74;66.27;99899.50;5467639;26;20013;-78
2024/04/10 10:07:03;;;;;;;11.75;4.60;;;;;;;11.41;67.27;99902.66;5483613;26;20876;-78
2024/04/10 10:09:29;;;;;;;7.95;4.03;;;;;;;11.57;67.34;99914.56;5475602;26;20034;-78
2024/04/10 10:11:58;;;;;;;9.10;4.40;;;;;;;11.72;66.88;99923.81;5477823;26;20446;-78
2024/04/10 10:14:28;;;;;;;7.35;3.88;;;;;;;11.66;67.21;99919.38;5457563;26;20009;-77
2024/04/10 10:17:09;;;;;;;9.30;4.05;;;;;;;11.53;68.10;99916.84;5482383;26;20835;-78
2024/04/10 10:19:36;;;;;;;13.82;3.33;;;;;;;11.68;67.56;99924.50;5486706;26;20017;-78
2024/04/10 10:22:02;;;;;;;7.90;3.45;;;;;;;11.72;67.66;99921.16;5486628;26;19998;-78
2024/04/10 10:24:29;;;;;;;7.78;2.88;;;;;;;11.84;66.95;99926.50;5487589;26;20761;-78
2024/04/10 10:27:01;;;;;;;5.78;2.97;;;;;;;12.05;66.25;99939.34;5471840;26;20466;-77
2024/04/10 10:29:27;;;;;;;4.97;3.15;;;;;;;11.87;67.36;99926.88;5474846;26;19998;-78
2024/04/10 10:32:07;;;;;;;7.60;2.78;;;;;;;11.88;66.48;99931.16;5484949;26;20041;-78
2024/04/10 10:34:33;;;;;;;4.45;3.22;;;;;;;11.89;66.84;99940.00;5472037;26;20454;-77
2024/04/10 10:37:08;;;;;;;7.40;2.47;;;;;;;12.05;66.17;99942.03;5487410;26;20597;-78
2024/04/10 10:39:34;;;;;;;4.75;2.97;;;;;;;12.24;66.18;99945.41;5485637;26;19994;-78
2024/04/10 10:42:03;;;;;;;6.25;4.50;;;;;;;12.08;66.39;99948.78;5454929;26;20001;-78
2024/04/10 10:44:29;;;;;;;6.38;2.75;;;;;;;12.19;66.76;99951.44;5486851;26;19999;-78
2024/04/10 10:46:57;;;;;;;6.57;2.60;;;;;;;12.38;66.25;99949.50;5487617;26;20083;-78
2024/04/10 10:49:31;;;;;;;4.18;2.53;;;;;;;12.52;65.08;99950.88;5486280;26;20058;-78
2024/04/10 10:51:57;;;;;;;4.90;2.72;;;;;;;12.29;65.75;99946.34;5487634;26;20002;-77
2024/04/10 10:54:23;;;;;;;5.07;2.53;;;;;;;12.10;66.24;99958.19;5487857;26;20365;-78
2024/04/10 10:56:48;;;;;;;3.08;2.40;;;;;;;12.19;66.23;99953.34;5486219;26;20848;-78
2024/04/10 10:59:14;;;;;;;4.65;2.30;;;;;;;12.07;66.05;99953.31;5485051;26;20030;-78
2024/04/10 11:01:43;;;;;;;4.20;2.05;;;;;;;12.06;66.33;99959.69;5484970;26;20027;-78
2024/04/10 11:04:09;;;;;;;5.60;2.15;;;;;;;12.24;66.05;99956.94;5487045;26;19994;-77
2024/04/10 11:06:34;;;;;;;4.47;2.30;;;;;;;12.29;65.87;99962.41;5488011;26;19998;-78
2024/04/10 11:09:09;;;;;;;3.22;2.17;;;;;;;12.15;65.98;99963.66;5485150;26;20070;-78
2024/04/10 11:11:38;;;;;;;4.97;2.00;;;;;;;12.20;66.17;99974.50;5486871;26;20401;-78
2024/04/10 11:14:03;;;;;;;2.63;2.20;;;;;;;12.18;66.15;99968.56;5450824;26;20132;-78
2024/04/10 11:16:33;;;;;;;4.07;2.40;;;;;;;12.19;66.37;99970.19;5477054;26;20705;-77
2024/04/10 11:19:00;;;;;;;4.05;1.83;;;;;;;12.54;66.06;99964.84;5484826;26;19998;-77
2024/04/10 11:21:25;;;;;;;5.60;2.30;;;;;;;12.56;64.69;99957.38;5486445;26;19990;-78
2024/04/10 11:23:51;;;;;;;2.60;2.33;;;;;;;12.60;65.42;99971.97;5484250;26;20037;-78
2024/04/10 11:26:17;;;;;;;4.88;2.00;;;;;;;12.57;65.15;99975.09;5486373;26;20067;-78
2024/04/10 11:28:43;;;;;;;5.25;2.40;;;;;;;12.44;65.58;99978.81;5482059;26;20865;-78
2024/04/10 11:31:10;;;;;;;3.97;2.40;;;;;;;12.31;65.36;99967.53;5484035;26;20013;-77